Time;durP1;ratioP1;P1;durP2;ratioP2;P2;SDS_P1;SDS_P2;PMS_P1;PMS_P2;Temp;Humidity;BMP_temperature;BMP_pressure;BME280_temperature;BME280_humidity;BME280_pressure;Samples;Min_cycle;Max_cycle;Signal;HPM_P1;HPM_P2
2022/06/18 00:00:28;;;;;;;0.10;0.10;;;;;;;22.33;58.16;100380.69;5054915;28;20043;-76
2022/06/18 00:02:54;;;;;;;0.20;0.20;;;;;;;22.17;58.14;100379.41;5055032;28;20087;-77
2022/06/18 00:05:24;;;;;;;0.10;0.10;;;;;;;22.19;58.48;100384.63;5054722;28;20414;-77
2022/06/18 00:07:53;;;;;;;0.20;0.20;;;;;;;22.12;57.80;100379.91;5054704;28;20036;-76
2022/06/18 00:10:23;;;;;;;0.20;0.20;;;;;;;22.06;56.19;100372.34;5054695;28;20100;-75
2022/06/18 00:15:37;;;;;;;0.10;0.10;;;;;;;22.14;57.38;100379.47;5056303;28;20120;-74
2022/06/18 00:18:03;;;;;;;0.20;0.20;;;;;;;22.18;56.75;100371.69;5038349;28;20029;-78
2022/06/18 00:20:34;;;;;;;0.10;0.10;;;;;;;22.23;57.13;100368.34;5055065;28;20090;-76
2022/06/18 00:23:01;;;;;;;0.20;0.20;;;;;;;22.17;56.52;100368.06;5054141;28;20033;-74
2022/06/18 00:25:36;;;;;;;0.10;0.10;;;;;;;22.14;53.81;100362.47;5055517;28;20442;-74
2022/06/18 00:28:13;;;;;;;0.20;0.20;;;;;;;22.22;51.30;100352.56;5037911;28;20037;-74
2022/06/18 00:30:41;;;;;;;0.20;0.20;;;;;;;22.35;49.09;100359.16;5054787;28;20374;-75
2022/06/18 00:33:08;;;;;;;0.10;0.10;;;;;;;22.68;48.71;100362.03;5055630;28;20112;-73
2022/06/18 00:35:37;;;;;;;0.13;0.13;;;;;;;22.88;48.65;100342.94;5054120;28;20120;-74
2022/06/18 00:38:04;;;;;;;0.15;0.15;;;;;;;22.87;48.95;100352.66;5054273;28;20021;-73
2022/06/18 00:40:38;;;;;;;0.10;0.10;;;;;;;22.75;50.15;100367.56;5055591;28;20029;-74
2022/06/18 00:43:20;;;;;;;0.20;0.20;;;;;;;22.47;50.75;100337.81;5053696;28;20059;-74
2022/06/18 00:45:45;;;;;;;0.10;0.10;;;;;;;22.46;52.21;100344.72;5054406;28;20525;-75
2022/06/18 00:48:16;;;;;;;0.20;0.20;;;;;;;22.41;51.49;100339.59;5054106;28;20029;-74
2022/06/18 00:50:57;;;;;;;0.10;0.10;;;;;;;22.35;52.76;100347.81;5054078;28;20029;-75
2022/06/18 00:53:31;;;;;;;0.20;0.20;;;;;;;22.47;51.93;100340.66;5053734;28;20033;-73
2022/06/18 00:56:21;;;;;;;0.20;0.20;;;;;;;22.27;52.67;100332.22;5053752;28;20487;-74
2022/06/18 00:58:57;;;;;;;0.10;0.10;;;;;;;22.22;51.21;100329.91;5054776;28;20430;-73
2022/06/18 01:01:31;;;;;;;0.10;0.10;;;;;;;22.17;52.80;100334.06;5053585;28;20431;-74
2022/06/18 01:03:57;;;;;;;0.20;0.20;;;;;;;22.15;53.02;100330.03;5054519;28;20068;-74
2022/06/18 01:06:28;;;;;;;0.10;0.10;;;;;;;22.07;53.40;100320.88;5054098;28;20036;-75
2022/06/18 01:09:08;;;;;;;0.10;0.10;;;;;;;21.79;54.11;100330.81;5053429;28;20036;-74
2022/06/18 01:11:38;;;;;;;0.10;0.10;;;;;;;21.78;54.70;100329.19;5053464;28;20021;-74
2022/06/18 01:14:09;;;;;;;0.10;0.10;;;;;;;21.56;56.55;100333.69;5037015;28;20037;-73
2022/06/18 01:16:35;;;;;;;0.20;0.20;;;;;;;21.56;57.37;100314.66;5053684;28;20021;-74
2022/06/18 01:19:05;;;;;;;0.20;0.20;;;;;;;21.40;57.51;100315.38;5053400;28;20060;-74
2022/06/18 01:22:02;;;;;;;0.10;0.10;;;;;;;21.39;57.50;100313.78;5053335;28;20029;-75
2022/06/18 01:24:33;;;;;;;0.10;0.10;;;;;;;21.70;50.50;100322.09;5053154;28;20025;-72
2022/06/18 01:27:07;;;;;;;0.20;0.20;;;;;;;21.51;55.46;100314.38;5053811;28;20375;-76
2022/06/18 01:29:35;;;;;;;0.10;0.10;;;;;;;21.81;50.18;100317.00;5053316;28;20035;-75
2022/06/18 01:32:01;;;;;;;0.20;0.20;;;;;;;22.02;50.32;100314.94;5053815;28;20111;-76
2022/06/18 01:34:30;;;;;;;0.20;0.20;;;;;;;21.96;51.96;100312.63;5052577;28;20059;-75
2022/06/18 01:36:59;;;;;;;0.10;0.10;;;;;;;21.75;53.10;100313.09;5053151;28;20029;-76
2022/06/18 01:39:26;;;;;;;0.10;0.10;;;;;;;21.69;52.26;100309.16;5053969;28;20029;-74
2022/06/18 01:42:00;;;;;;;0.10;0.10;;;;;;;21.86;50.42;100310.81;5036386;28;20036;-75
2022/06/18 01:44:47;;;;;;;0.10;0.10;;;;;;;22.03;47.92;100306.00;5052319;28;20395;-77
2022/06/18 01:47:31;;;;;;;0.10;0.10;;;;;;;21.99;51.38;100302.44;5054009;28;20021;-77
2022/06/18 01:50:09;;;;;;;0.20;0.20;;;;;;;21.92;52.00;100311.91;5053033;28;20029;-75
2022/06/18 01:52:43;;;;;;;0.20;0.20;;;;;;;21.89;51.49;100315.63;5052663;28;20087;-76
2022/06/18 01:55:18;;;;;;;0.10;0.10;;;;;;;21.88;51.96;100308.34;5052714;28;20120;-76
2022/06/18 01:57:49;;;;;;;0.13;0.13;;;;;;;21.87;53.35;100314.44;5053149;28;20344;-76
2022/06/18 02:00:21;;;;;;;0.10;0.10;;;;;;;21.84;53.27;100309.63;5052847;28;20479;-76
2022/06/18 02:02:50;;;;;;;0.10;0.10;;;;;;;21.60;52.73;100306.09;5053234;28;20520;-78
2022/06/18 02:05:18;;;;;;;0.10;0.10;;;;;;;21.57;52.04;100309.81;5052959;28;20037;-75
2022/06/18 02:07:46;;;;;;;0.10;0.10;;;;;;;21.62;51.80;100295.13;5053487;28;20033;-74
2022/06/18 02:10:42;;;;;;;0.20;0.20;;;;;;;21.67;52.80;100291.78;5036300;28;20139;-76
2022/06/18 02:13:12;;;;;;;0.10;0.10;;;;;;;21.85;50.21;100292.22;5047087;28;20119;-76
2022/06/18 02:15:46;;;;;;;0.10;0.10;;;;;;;21.74;51.06;100263.34;5053077;28;20067;-77
2022/06/18 02:18:14;;;;;;;0.10;0.10;;;;;;;21.80;51.71;100277.78;5052492;28;20032;-77
2022/06/18 02:20:48;;;;;;;0.10;0.10;;;;;;;22.00;50.42;100284.22;5054048;28;20029;-76
2022/06/18 02:23:19;;;;;;;0.10;0.10;;;;;;;22.03;49.91;100276.88;5052333;28;20033;-77
2022/06/18 02:25:49;;;;;;;0.10;0.10;;;;;;;22.22;49.82;100276.84;5052727;28;20033;-76
2022/06/18 02:28:25;;;;;;;0.10;0.10;;;;;;;21.86;50.99;100295.88;5052183;28;20116;-76
2022/06/18 02:30:55;;;;;;;0.10;0.10;;;;;;;21.61;51.94;100302.03;5053453;28;20029;-76
2022/06/18 02:33:29;;;;;;;0.10;0.10;;;;;;;21.51;52.74;100294.56;5052655;28;20353;-76
2022/06/18 02:35:59;;;;;;;0.10;0.10;;;;;;;21.71;52.32;100315.19;5051856;28;20025;-75
2022/06/18 02:38:25;;;;;;;0.20;0.20;;;;;;;21.34;53.25;100305.78;5052006;28;20024;-76
2022/06/18 02:40:53;;;;;;;0.10;0.10;;;;;;;21.59;52.33;100315.84;5052151;28;20035;-75
2022/06/18 02:43:22;;;;;;;0.20;0.20;;;;;;;21.81;51.51;100319.81;5051710;28;20140;-75
2022/06/18 02:45:53;;;;;;;0.17;0.17;;;;;;;21.98;50.47;100281.81;5054062;28;20116;-74
2022/06/18 02:48:23;;;;;;;0.10;0.10;;;;;;;22.43;50.12;100323.75;5056596;28;20028;-74
2022/06/18 02:50:55;;;;;;;0.10;0.10;;;;;;;22.51;49.32;100332.06;5056127;28;20143;-74
2022/06/18 02:53:25;;;;;;;0.10;0.10;;;;;;;22.56;49.88;100325.88;5039601;28;20068;-75
2022/06/18 02:55:58;;;;;;;0.10;0.10;;;;;;;22.63;49.42;100326.50;5056234;28;20124;-75
2022/06/18 02:58:26;;;;;;;0.10;0.10;;;;;;;22.79;49.14;100337.03;5056335;28;20349;-77
2022/06/18 03:01:04;;;;;;;0.10;0.10;;;;;;;22.62;49.46;100335.44;5056401;28;20126;-78
2022/06/18 03:03:38;;;;;;;0.20;0.20;;;;;;;22.47;50.38;100335.78;5056255;28;20028;-76
2022/06/18 03:06:06;;;;;;;0.10;0.10;;;;;;;22.42;50.80;100341.97;5052651;28;20040;-77
2022/06/18 03:08:36;;;;;;;0.10;0.10;;;;;;;22.44;50.98;100344.38;5056029;28;20348;-75
2022/06/18 03:13:46;;;;;;;0.20;0.20;;;;;;;22.57;51.19;100350.16;5055606;28;20148;-78
2022/06/18 03:16:15;;;;;;;0.10;0.10;;;;;;;22.62;50.92;100346.78;5055828;28;20037;-76
2022/06/18 03:18:43;;;;;;;0.10;0.10;;;;;;;22.75;50.78;100356.22;5055487;28;20037;-77
2022/06/18 03:21:18;;;;;;;0.10;0.10;;;;;;;22.79;50.57;100348.38;5055493;28;20522;-75
2022/06/18 03:23:44;;;;;;;0.10;0.10;;;;;;;22.73;50.23;100313.28;5055916;28;20372;-74
2022/06/18 03:26:16;;;;;;;0.10;0.10;;;;;;;22.97;50.21;100328.94;5055340;28;20029;-78
2022/06/18 03:28:44;;;;;;;0.10;0.10;;;;;;;22.91;50.81;100336.38;5056064;28;20033;-76
2022/06/18 03:31:17;;;;;;;0.20;0.20;;;;;;;22.90;50.72;100329.09;5038941;28;20467;-77
2022/06/18 03:33:47;;;;;;;0.20;0.20;;;;;;;22.93;50.60;100345.25;5055526;28;20478;-75
2022/06/18 03:36:18;;;;;;;0.10;0.10;;;;;;;22.80;51.09;100344.34;5055851;28;20336;-75
2022/06/18 03:38:43;;;;;;;0.10;0.10;;;;;;;22.91;51.04;100336.38;5055060;28;20073;-76
2022/06/18 03:41:10;;;;;;;0.10;0.10;;;;;;;22.76;51.35;100340.78;5055033;28;20056;-77
2022/06/18 03:43:36;;;;;;;0.20;0.20;;;;;;;22.81;51.57;100350.81;5056192;28;20053;-77
2022/06/18 03:46:08;;;;;;;0.20;0.20;;;;;;;22.74;51.42;100355.41;5055241;28;20120;-77
2022/06/18 03:48:53;;;;;;;0.10;0.10;;;;;;;22.67;51.84;100355.56;5054885;28;20471;-76
2022/06/18 03:51:20;;;;;;;0.20;0.20;;;;;;;22.83;51.46;100354.78;5055902;28;20036;-77
2022/06/18 03:53:49;;;;;;;0.10;0.10;;;;;;;22.92;51.08;100362.72;5054999;28;20055;-78
2022/06/18 03:56:18;;;;;;;0.10;0.10;;;;;;;22.98;50.71;100370.25;5055052;28;20441;-76
2022/06/18 03:58:44;;;;;;;0.15;0.15;;;;;;;23.20;50.74;100370.50;5055424;28;20429;-78
2022/06/18 04:01:19;;;;;;;0.20;0.20;;;;;;;23.56;49.49;100372.38;5054906;28;20033;-75
2022/06/18 04:03:44;;;;;;;0.10;0.10;;;;;;;23.76;48.88;100375.13;5054862;28;20400;-77
2022/06/18 04:06:15;;;;;;;0.10;0.10;;;;;;;24.05;48.52;100384.41;5054859;28;20040;-76
2022/06/18 04:08:41;;;;;;;0.10;0.10;;;;;;;24.42;47.52;100375.63;5056141;28;20035;-76
2022/06/18 04:11:10;;;;;;;0.13;0.13;;;;;;;24.13;48.60;100378.50;5054723;28;20375;-76
2022/06/18 04:13:35;;;;;;;0.10;0.10;;;;;;;24.27;48.79;100378.06;5054513;28;20029;-78
2022/06/18 04:16:06;;;;;;;0.10;0.10;;;;;;;24.11;49.16;100389.53;5054374;28;20040;-78
2022/06/18 04:18:34;;;;;;;0.20;0.20;;;;;;;24.22;48.88;100390.00;5054950;28;20029;-78
2022/06/18 04:21:00;;;;;;;0.10;0.10;;;;;;;24.73;47.55;100384.41;5054804;28;20545;-76
2022/06/18 04:23:26;;;;;;;0.20;0.20;;;;;;;25.07;46.38;100381.66;5055872;28;20116;-78
2022/06/18 04:25:51;;;;;;;0.10;0.10;;;;;;;25.56;44.85;100380.38;5054356;28;20539;-77
2022/06/18 04:28:18;;;;;;;0.13;0.13;;;;;;;26.04;44.41;100381.09;5054307;28;20029;-78
2022/06/18 04:30:44;;;;;;;0.10;0.10;;;;;;;26.24;43.90;100384.41;5054299;28;20472;-77
2022/06/18 04:33:11;;;;;;;0.10;0.10;;;;;;;26.89;42.42;100382.66;5054560;28;20139;-79
2022/06/18 04:35:37;;;;;;;0.20;0.20;;;;;;;26.60;42.76;100380.97;5053961;28;20021;-78
2022/06/18 04:38:04;;;;;;;0.10;0.10;;;;;;;26.42;43.39;100382.94;5055473;28;20103;-75
2022/06/18 04:40:32;;;;;;;0.10;0.10;;;;;;;26.00;45.37;100386.97;5054097;28;20033;-77
2022/06/18 04:43:03;;;;;;;0.10;0.10;;;;;;;26.21;46.21;100396.75;5053618;28;20080;-77
2022/06/18 04:45:29;;;;;;;0.10;0.10;;;;;;;27.07;42.87;100397.03;5054167;28;20371;-75
2022/06/18 04:47:58;;;;;;;0.10;0.10;;;;;;;27.27;42.50;100384.38;5054156;28;20103;-75
2022/06/18 04:50:28;;;;;;;0.10;0.10;;;;;;;27.54;41.41;100393.00;5053744;28;20036;-76
2022/06/18 04:52:56;;;;;;;0.10;0.10;;;;;;;27.63;41.05;100384.41;5053983;28;20116;-75
2022/06/18 04:55:22;;;;;;;0.15;0.15;;;;;;;28.09;40.86;100407.28;5053612;28;20031;-75
2022/06/18 04:57:47;;;;;;;0.10;0.10;;;;;;;28.62;40.02;100392.56;5054112;28;20471;-74
2022/06/18 05:00:15;;;;;;;0.10;0.10;;;;;;;29.03;39.32;100401.63;5053573;28;20028;-75
2022/06/18 05:02:40;;;;;;;0.10;0.10;;;;;;;29.34;38.78;100398.41;5053548;28;20037;-75
2022/06/18 05:05:12;;;;;;;0.10;0.10;;;;;;;29.74;38.64;100403.72;5053616;28;20027;-75
2022/06/18 05:07:38;;;;;;;0.10;0.10;;;;;;;29.33;37.92;100413.22;5054045;28;20029;-75
2022/06/18 05:10:04;;;;;;;0.10;0.10;;;;;;;29.57;37.37;100414.06;5052421;28;20476;-75
2022/06/18 05:12:30;;;;;;;0.10;0.10;;;;;;;30.15;36.53;100406.88;5053385;28;20028;-76
2022/06/18 05:14:56;;;;;;;0.10;0.10;;;;;;;30.80;35.51;100417.69;5053450;28;20029;-76
2022/06/18 05:17:26;;;;;;;0.10;0.10;;;;;;;30.95;34.42;100430.72;5053875;28;20378;-75
2022/06/18 05:19:51;;;;;;;0.10;0.10;;;;;;;30.21;36.52;100425.00;5053284;28;20022;-75
2022/06/18 05:22:18;;;;;;;0.10;0.10;;;;;;;30.06;36.35;100429.09;5053169;28;20128;-74
2022/06/18 05:24:43;;;;;;;0.10;0.10;;;;;;;30.12;36.58;100422.22;5053273;28;20028;-74
2022/06/18 05:27:16;;;;;;;0.10;0.10;;;;;;;30.18;35.69;100428.06;5053746;28;20037;-74
2022/06/18 05:29:42;;;;;;;;;;;;;;;30.11;36.35;100426.34;5053956;28;20052;-74
2022/06/18 05:32:07;;;;;;;0.10;0.10;;;;;;;30.74;35.24;100440.56;5053142;28;20401;-74
2022/06/18 05:34:33;;;;;;;0.10;0.10;;;;;;;31.37;34.32;100434.47;5053217;28;20037;-74
2022/06/18 05:36:58;;;;;;;0.10;0.10;;;;;;;31.22;33.53;100431.63;5053598;28;20445;-74
2022/06/18 05:39:26;;;;;;;0.10;0.10;;;;;;;31.22;33.99;100435.31;5053120;28;20052;-74
2022/06/18 05:41:52;;;;;;;0.10;0.10;;;;;;;30.58;35.07;100441.03;5052785;28;20033;-74
2022/06/18 05:44:17;;;;;;;0.10;0.10;;;;;;;31.26;33.96;100437.97;5052583;28;20045;-74
2022/06/18 05:46:44;;;;;;;0.10;0.10;;;;;;;31.89;32.50;100431.78;5052423;28;20025;-74
2022/06/18 05:49:09;;;;;;;0.10;0.10;;;;;;;31.72;33.30;100432.34;5053487;28;20040;-74
2022/06/18 05:51:35;;;;;;;0.10;0.10;;;;;;;32.06;32.16;100442.16;5052953;28;20033;-74
2022/06/18 05:54:01;;;;;;;0.10;0.10;;;;;;;32.78;31.37;100441.31;5052688;28;20025;-74
2022/06/18 05:56:26;;;;;;;0.10;0.10;;;;;;;32.50;30.30;100434.53;5053143;28;20040;-74
2022/06/18 05:58:52;;;;;;;0.10;0.10;;;;;;;32.24;31.31;100455.47;5052512;28;20091;-74
2022/06/18 06:01:17;;;;;;;0.10;0.10;;;;;;;31.50;32.84;100455.06;5052541;28;20029;-74
2022/06/18 06:03:43;;;;;;;0.10;0.10;;;;;;;30.42;34.77;100453.81;5052641;28;20120;-74
2022/06/18 06:06:09;;;;;;;0.10;0.10;;;;;;;30.46;35.68;100452.31;5052954;28;20371;-74
2022/06/18 06:08:35;;;;;;;0.10;0.10;;;;;;;30.69;34.82;100467.91;5052268;28;20471;-74
2022/06/18 06:13:45;;;;;;;0.10;0.10;;;;;;;31.86;32.72;100468.09;5054058;28;20039;-74
2022/06/18 06:16:11;;;;;;;0.10;0.10;;;;;;;32.24;32.65;100471.94;5052234;28;20032;-75
2022/06/18 06:18:37;;;;;;;0.10;0.10;;;;;;;32.69;31.46;100470.31;5052177;28;20025;-74
2022/06/18 06:21:03;;;;;;;0.10;0.10;;;;;;;32.61;31.27;100469.19;5051603;28;20033;-74
2022/06/18 06:23:29;;;;;;;0.10;0.10;;;;;;;32.79;30.51;100463.06;5051214;28;20734;-74
2022/06/18 06:25:56;;;;;;;0.10;0.10;;;;;;;32.99;30.00;100459.31;5051878;28;20036;-75
2022/06/18 06:28:26;;;;;;;0.10;0.10;;;;;;;33.45;29.13;100472.78;5052036;28;20033;-75
2022/06/18 06:30:54;;;;;;;0.10;0.10;;;;;;;33.55;28.79;100479.09;5052384;28;20110;-75
2022/06/18 06:33:20;;;;;;;0.10;0.10;;;;;;;32.93;30.19;100480.75;5051946;28;20059;-74
2022/06/18 06:35:46;;;;;;;0.10;0.10;;;;;;;32.97;29.90;100469.78;5051858;28;20056;-75
2022/06/18 06:38:13;;;;;;;0.10;0.10;;;;;;;32.11;30.56;100434.09;5052101;28;20532;-74
2022/06/18 06:40:42;;;;;;;0.10;0.10;;;;;;;32.18;30.48;100465.34;5051750;28;20033;-74
2022/06/18 06:43:13;;;;;;;0.10;0.10;;;;;;;33.11;29.63;100460.19;5051459;28;20057;-75
2022/06/18 06:45:40;;;;;;;0.10;0.10;;;;;;;33.69;28.30;100475.25;5051768;28;20028;-75
2022/06/18 06:48:06;;;;;;;0.10;0.10;;;;;;;33.56;28.83;100466.28;5051664;28;20029;-74
2022/06/18 06:50:32;;;;;;;0.10;0.10;;;;;;;33.95;29.35;100468.56;5052566;28;20101;-74
2022/06/18 06:53:00;;;;;;;0.10;0.10;;;;;;;34.31;28.81;100472.59;5051923;28;20071;-74
2022/06/18 06:58:23;;;;;;;0.10;0.10;;;;;;;34.57;28.66;100463.72;5053514;28;20095;-75
2022/06/18 07:00:54;;;;;;;0.10;0.10;;;;;;;33.94;28.91;100455.44;5051998;28;20418;-74
2022/06/18 07:03:27;;;;;;;0.10;0.10;;;;;;;34.40;28.92;100464.47;5051735;28;20577;-74
2022/06/18 07:05:54;;;;;;;0.10;0.10;;;;;;;34.40;29.06;100463.69;5051693;28;20029;-74
2022/06/18 07:08:23;;;;;;;0.10;0.10;;;;;;;34.42;29.01;100463.19;5051733;28;20036;-75
2022/06/18 07:10:50;;;;;;;0.10;0.10;;;;;;;34.81;27.52;100469.78;5051713;28;20025;-74
2022/06/18 07:13:18;;;;;;;0.10;0.10;;;;;;;35.14;27.50;100462.44;5052288;28;20491;-75
2022/06/18 07:15:45;;;;;;;0.10;0.10;;;;;;;35.26;27.28;100463.97;5052095;28;20032;-75
2022/06/18 07:18:16;;;;;;;0.10;0.10;;;;;;;35.60;26.38;100466.81;5051373;28;20115;-75
2022/06/18 07:20:45;;;;;;;0.10;0.10;;;;;;;35.22;27.05;100463.47;5051564;28;20028;-74
2022/06/18 07:23:13;;;;;;;0.10;0.10;;;;;;;34.42;28.17;100457.41;5051960;28;20057;-74
2022/06/18 07:25:40;;;;;;;0.10;0.10;;;;;;;34.86;27.44;100460.31;5051522;28;20056;-74
2022/06/18 07:28:06;;;;;;;0.10;0.10;;;;;;;34.15;27.65;100445.28;5051918;28;20531;-75
2022/06/18 07:30:33;;;;;;;0.10;0.10;;;;;;;33.41;29.07;100454.09;5051730;28;20035;-74
2022/06/18 07:33:01;;;;;;;0.10;0.10;;;;;;;32.96;29.64;100448.03;5053640;28;20067;-74
2022/06/18 07:35:29;;;;;;;0.10;0.10;;;;;;;32.63;29.14;100432.03;5057098;28;20033;-75
2022/06/18 07:37:56;;;;;;;0.10;0.10;;;;;;;32.99;29.08;100418.19;5055222;28;20037;-75
2022/06/18 07:40:25;;;;;;;0.10;0.10;;;;;;;31.83;31.38;100433.78;5055390;28;20032;-74
2022/06/18 07:42:53;;;;;;;0.10;0.10;;;;;;;33.11;30.04;100440.00;5055419;28;20487;-75
2022/06/18 07:45:24;;;;;;;0.10;0.10;;;;;;;33.12;28.17;100430.06;5054683;28;20037;-75
2022/06/18 07:47:52;;;;;;;0.10;0.10;;;;;;;33.04;28.60;100435.53;5055392;28;20040;-75
2022/06/18 07:50:19;;;;;;;0.20;0.20;;;;;;;32.82;27.66;100443.97;5055279;28;20033;-75
2022/06/18 07:52:45;;;;;;;0.10;0.10;;;;;;;33.73;26.92;100438.28;5055130;28;20391;-75
2022/06/18 07:55:24;;;;;;;0.10;0.10;;;;;;;34.02;26.10;100439.19;5055030;28;20039;-75
2022/06/18 07:57:53;;;;;;;0.10;0.10;;;;;;;32.92;26.28;100435.94;5054811;28;20029;-75
2022/06/18 08:00:21;;;;;;;0.10;0.10;;;;;;;33.59;26.03;100431.41;5055073;28;20033;-75
2022/06/18 08:02:52;;;;;;;0.10;0.10;;;;;;;33.58;25.59;100429.03;5055311;28;20170;-75
2022/06/18 08:05:27;;;;;;;0.10;0.10;;;;;;;34.15;26.02;100425.06;5054746;28;20029;-75
2022/06/18 08:07:56;;;;;;;0.10;0.10;;;;;;;34.08;25.95;100429.22;5055265;28;20033;-75
2022/06/18 08:10:27;;;;;;;0.10;0.10;;;;;;;33.53;26.53;100432.69;5054559;28;20120;-75
2022/06/18 08:12:54;;;;;;;0.10;0.10;;;;;;;32.66;28.31;100427.34;5055225;28;20044;-75
2022/06/18 08:15:25;;;;;;;0.10;0.10;;;;;;;32.56;28.40;100423.84;5054436;28;20059;-75
2022/06/18 08:17:55;;;;;;;0.10;0.10;;;;;;;33.24;26.78;100425.97;5054456;28;20103;-75
2022/06/18 08:20:23;;;;;;;0.10;0.10;;;;;;;33.06;27.21;100432.91;5054384;28;20096;-74
2022/06/18 08:22:55;;;;;;;0.10;0.10;;;;;;;33.18;26.45;100435.84;5054982;28;20459;-75
2022/06/18 08:25:22;;;;;;;0.10;0.10;;;;;;;33.34;26.85;100438.84;5055599;28;20028;-75
2022/06/18 08:27:48;;;;;;;0.10;0.10;;;;;;;33.57;26.15;100431.13;5054453;28;20029;-74
2022/06/18 08:30:17;;;;;;;0.10;0.10;;;;;;;33.30;25.93;100432.53;5054141;28;20025;-75
2022/06/18 08:32:44;;;;;;;0.10;0.10;;;;;;;33.49;26.26;100432.91;5054389;28;20029;-74
2022/06/18 08:35:15;;;;;;;0.10;0.10;;;;;;;34.23;24.88;100423.22;5054444;28;20410;-75
2022/06/18 08:37:43;;;;;;;0.10;0.10;;;;;;;34.15;24.87;100427.94;5055552;28;20037;-74
2022/06/18 08:40:46;;;;;;;0.10;0.10;;;;;;;34.22;24.38;100429.53;5037638;28;20091;-75
2022/06/18 08:43:39;;;;;;;0.10;0.10;;;;;;;33.31;25.59;100428.34;5055439;28;20138;-75
2022/06/18 08:46:16;;;;;;;0.10;0.10;;;;;;;33.19;26.18;100426.72;5055804;28;20104;-74
2022/06/18 08:48:45;;;;;;;0.10;0.10;;;;;;;33.45;25.07;100432.41;5054329;28;20455;-75
2022/06/18 08:51:44;;;;;;;0.10;0.10;;;;;;;33.83;25.09;100439.63;5054136;28;20056;-75
2022/06/18 08:54:27;;;;;;;0.10;0.10;;;;;;;33.73;25.62;100435.41;5053716;28;20025;-75
2022/06/18 08:57:16;;;;;;;0.10;0.10;;;;;;;32.92;26.11;100436.75;5053624;28;20033;-75
2022/06/18 09:00:16;;;;;;;0.10;0.10;;;;;;;33.54;25.50;100437.94;5024126;28;20107;-75
2022/06/18 09:02:45;;;;;;;0.10;0.10;;;;;;;33.60;25.24;100432.97;5053649;28;20119;-74
2022/06/18 09:05:22;;;;;;;0.10;0.10;;;;;;;33.66;23.97;100424.34;5054142;28;20127;-75
2022/06/18 09:08:10;;;;;;;0.10;0.10;;;;;;;33.65;24.38;100440.06;5054927;28;20029;-74
2022/06/18 09:10:54;;;;;;;0.10;0.10;;;;;;;32.46;26.00;100428.22;5053122;28;20078;-74
2022/06/18 09:13:30;;;;;;;0.10;0.10;;;;;;;32.97;25.77;100420.78;5053436;28;20068;-74
2022/06/18 09:16:02;;;;;;;0.10;0.10;;;;;;;32.44;26.84;100430.78;5054882;28;20033;-75
2022/06/18 09:18:42;;;;;;;0.10;0.10;;;;;;;33.59;25.22;100424.84;5036932;28;20029;-74
2022/06/18 09:21:13;;;;;;;0.10;0.10;;;;;;;33.09;25.68;100433.97;5053419;28;20033;-75
2022/06/18 09:24:05;;;;;;;0.10;0.10;;;;;;;32.79;25.97;100434.25;5053505;28;20029;-75
2022/06/18 09:26:39;;;;;;;0.10;0.10;;;;;;;33.51;24.89;100421.66;5053374;28;20365;-75
2022/06/18 09:29:24;;;;;;;0.10;0.10;;;;;;;33.29;24.68;100424.38;5053420;28;20036;-74
2022/06/18 09:32:05;;;;;;;0.10;0.10;;;;;;;33.58;24.04;100411.72;5053057;28;20037;-75
2022/06/18 09:34:46;;;;;;;0.10;0.10;;;;;;;33.34;23.71;100412.88;5052999;28;20025;-75
2022/06/18 09:37:40;;;;;;;0.10;0.10;;;;;;;33.37;24.01;100414.75;5052984;28;20032;-74
2022/06/18 09:40:13;;;;;;;0.10;0.10;;;;;;;32.46;24.65;100413.81;5045172;28;20094;-74
2022/06/18 09:43:17;;;;;;;0.10;0.10;;;;;;;31.97;24.24;100421.41;5052608;28;20041;-74
2022/06/18 09:45:49;;;;;;;0.10;0.10;;;;;;;32.13;23.95;100422.88;5043313;28;20033;-74
2022/06/18 09:48:17;;;;;;;0.10;0.10;;;;;;;31.01;25.62;100433.69;5036374;28;20037;-74
2022/06/18 09:50:56;;;;;;;0.10;0.10;;;;;;;30.25;26.80;100405.47;5052794;28;20032;-74
2022/06/18 09:53:42;;;;;;;0.10;0.10;;;;;;;30.43;26.25;100397.97;5053235;28;20029;-73
2022/06/18 09:56:35;;;;;;;0.10;0.10;;;;;;;31.03;26.52;100413.84;5052055;28;20021;-75
2022/06/18 09:59:23;;;;;;;0.10;0.10;;;;;;;30.76;26.77;100406.38;5049693;28;20181;-74
2022/06/18 10:01:53;;;;;;;0.10;0.10;;;;;;;31.58;26.35;100395.00;5052740;28;20380;-75
2022/06/18 10:07:27;;;;;;;0.10;0.10;;;;;;;33.29;24.42;100384.84;5053488;28;20040;-75
2022/06/18 10:10:02;;;;;;;0.10;0.10;;;;;;;32.47;24.14;100390.25;5052764;28;20392;-74
2022/06/18 10:12:34;;;;;;;0.10;0.10;;;;;;;33.32;23.00;100401.09;5053247;28;20021;-75
2022/06/18 10:15:05;;;;;;;0.10;0.10;;;;;;;32.63;23.52;100390.91;5052532;28;20390;-74
2022/06/18 10:17:39;;;;;;;0.10;0.10;;;;;;;32.42;23.68;100382.38;5052062;28;20032;-73
2022/06/18 10:20:26;;;;;;;0.10;0.10;;;;;;;31.91;25.15;100394.66;5051733;28;20127;-74
2022/06/18 10:23:03;;;;;;;0.10;0.10;;;;;;;31.82;24.93;100375.47;5051871;28;20056;-72
2022/06/18 10:25:42;;;;;;;0.10;0.10;;;;;;;31.67;24.44;100381.28;5051934;28;20037;-72
2022/06/18 10:28:16;;;;;;;0.10;0.10;;;;;;;31.78;24.32;100380.63;5053244;28;20017;-73
2022/06/18 10:31:07;;;;;;;0.10;0.10;;;;;;;31.59;25.44;100385.09;5051925;28;20028;-73
2022/06/18 10:34:01;;;;;;;0.10;0.10;;;;;;;31.78;25.27;100392.13;5052574;28;20536;-73
2022/06/18 10:36:52;;;;;;;0.10;0.10;;;;;;;31.79;24.93;100385.06;5052678;28;20094;-73
2022/06/18 10:39:20;;;;;;;0.17;0.17;;;;;;;31.60;25.48;100384.59;5024369;28;20044;-73
2022/06/18 10:42:10;;;;;;;0.10;0.10;;;;;;;32.05;24.91;100374.41;5052067;28;20053;-73
2022/06/18 10:44:54;;;;;;;0.10;0.10;;;;;;;31.16;25.28;100379.00;5051447;28;20539;-73
2022/06/18 10:47:32;;;;;;;0.10;0.10;;;;;;;31.28;24.97;100377.94;5052238;28;20047;-73
2022/06/18 10:50:09;;;;;;;0.10;0.10;;;;;;;31.98;24.33;100376.94;5051994;28;20040;-73
2022/06/18 10:52:37;;;;;;;0.10;0.10;;;;;;;32.31;24.23;100370.72;5052456;28;20021;-73
2022/06/18 10:55:27;;;;;;;0.10;0.10;;;;;;;31.91;23.72;100374.53;5053517;28;20094;-73
2022/06/18 10:58:13;;;;;;;0.10;0.10;;;;;;;31.47;24.84;100372.66;5035455;28;20029;-73
2022/06/18 11:00:54;;;;;;;0.10;0.10;;;;;;;31.93;24.68;100363.28;5052393;28;20029;-76
2022/06/18 11:03:34;;;;;;;0.10;0.10;;;;;;;32.75;23.81;100363.75;5052559;28;20108;-73
2022/06/18 11:06:11;;;;;;;0.10;0.10;;;;;;;32.06;22.35;100355.03;5052321;28;20044;-73
2022/06/18 11:08:38;;;;;;;0.10;0.10;;;;;;;31.23;23.48;100365.03;5056517;28;20029;-72
2022/06/18 11:11:06;;;;;;;0.10;0.10;;;;;;;30.98;23.72;100359.97;5055713;28;20029;-73
2022/06/18 11:13:35;;;;;;;0.10;0.10;;;;;;;30.38;22.79;100350.66;5056336;28;20416;-72
2022/06/18 11:16:05;;;;;;;0.10;0.10;;;;;;;30.42;23.03;100364.84;5055656;28;20033;-73
2022/06/18 11:18:31;;;;;;;0.10;0.10;;;;;;;31.25;22.53;100356.72;5056111;28;20051;-73
2022/06/18 11:21:04;;;;;;;0.10;0.10;;;;;;;30.81;24.07;100361.81;5055648;28;20531;-73
2022/06/18 11:23:34;;;;;;;0.15;0.15;;;;;;;30.77;23.69;100362.00;5057116;28;20475;-73
2022/06/18 11:26:00;;;;;;;0.10;0.10;;;;;;;30.67;24.73;100349.81;5055591;28;20052;-73
2022/06/18 11:28:40;;;;;;;0.10;0.10;;;;;;;30.91;24.24;100348.91;5055505;28;20061;-73
2022/06/18 11:31:06;;;;;;;0.10;0.10;;;;;;;30.63;23.43;100332.03;5055522;28;20093;-73
2022/06/18 11:33:42;;;;;;;0.10;0.10;;;;;;;30.23;24.01;100341.28;5054807;28;20059;-73
2022/06/18 11:36:09;;;;;;;0.10;0.10;;;;;;;30.57;24.28;100315.97;5055451;28;20079;-74
2022/06/18 11:38:35;;;;;;;0.10;0.10;;;;;;;30.39;23.66;100331.38;5055425;28;20032;-73
2022/06/18 11:41:16;;;;;;;0.10;0.10;;;;;;;30.16;23.63;100336.72;5055888;28;20039;-73
2022/06/18 11:44:04;;;;;;;0.10;0.10;;;;;;;30.06;23.80;100332.34;5055170;28;20049;-73
2022/06/18 11:46:36;;;;;;;0.10;0.10;;;;;;;30.51;23.90;100310.94;5055190;28;20025;-73
2022/06/18 11:49:02;;;;;;;0.10;0.10;;;;;;;31.01;23.60;100315.88;5055128;28;20029;-74
2022/06/18 11:51:41;;;;;;;0.10;0.10;;;;;;;31.28;22.35;100309.72;5055185;28;20057;-73
2022/06/18 11:54:13;;;;;;;0.10;0.10;;;;;;;30.39;23.12;100326.41;5055130;28;20037;-73
2022/06/18 11:57:12;;;;;;;0.10;0.10;;;;;;;30.43;22.23;100317.59;5055552;28;20021;-74
2022/06/18 11:59:41;;;;;;;0.13;0.13;;;;;;;30.20;22.26;100305.78;5054903;28;20033;-76